Data for 04/07/2005

Time Sea-Level Adjusted Pressure Absolute Pressure Temperature Relative Humidity Dew Point   
(mb) (inHg) (mb) (inHg) (C) (F) (%) (C) (F)
00:05 1019 30.09 848 25.04 9.6 49.4 40 -3.4 25.9
00:10 1019 30.09 848 25.04 9.6 49.3 39 -3.7 25.3
00:15 1019 30.09 848 25.04 9.9 49.8 38 -3.6 25.5
00:20 1019 30.09 848 25.04 9.7 49.4 39 -3.7 25.3
00:25 1019 30.09 848 25.04 9.7 49.4 38 -4 24.8
00:30 1019 30.09 848 25.04 9.9 49.7 38 -3.9 24.9
00:35 1019 30.09 848 25.04 9.4 48.9 40 -3.5 25.8
00:40 1019 30.09 848 25.04 9.6 49.2 35 -5.2 22.6
00:45 1019 30.09 848 25.04 10.5 50.8 35 -4.3 24.3
00:50 1019 30.09 848 25.04 10.4 50.6 36 -4.2 24.4
00:55 1019 30.09 848 25.04 10.2 50.4 37 -3.9 25
01:00 1019 30.09 848 25.04 9.9 49.9 37 -4.1 24.6
01:05 1018 30.06 848 25.04 9.8 49.7 38 -3.8 25.2
01:10 1018 30.06 848 25.04 10 50 35 -4.8 23.4
01:15 1018 30.06 848 25.04 11 51.7 32 -4.9 23.2
01:20 1018 30.06 848 25.04 11 51.9 33 -4.6 23.6
01:25 1018 30.06 847 25.01 11.2 52.2 32 -4.8 23.3
01:30 1018 30.06 847 25.01 11 51.7 35 -4 24.9
01:35 1018 30.06 847 25.01 9.9 49.9 36 -4.4 24
01:40 1018 30.06 847 25.01 9.7 49.5 36 -4.5 24
01:45 1018 30.06 847 25.01 9.7 49.4 38 -4 24.8
01:50 1018 30.06 847 25.01 9.4 48.8 38 -4 24.7
01:55 1018 30.06 847 25.01 9.6 49.2 37 -4.4 24
02:00 1018 30.06 847 25.01 9.7 49.5 36 -4.6 23.8
02:05 1018 30.06 847 25.01 9.9 49.7 36 -4.6 23.8
02:10 1018 30.06 847 25.01 9.8 49.7 35 -4.9 23.1
02:15 1018 30.06 847 25.01 9.2 48.6 38 -4.3 24.3
02:20 1018 30.06 847 25.01 9 48.3 38 -4.6 23.7
02:25 1018 30.06 847 25.01 8.9 47.9 37 -4.8 23.3
02:30 1018 30.06 847 25.01 8.2 46.8 42 -3.9 25
02:35 1018 30.06 847 25.01 8.7 47.7 38 -4.8 23.4
02:40 1018 30.06 847 25.01 8.7 47.6 37 -5.1 22.8
02:45 1018 30.06 847 25.01 9.7 49.5 34 -5.5 22
02:50 1018 30.06 847 25.01 10 49.9 34 -5.3 22.5
02:55 1018 30.06 847 25.01 9.8 49.6 35 -5.1 22.8
03:00 1018 30.06 847 25.01 9.6 49.3 36 -4.8 23.3
03:05 1018 30.06 847 25.01 9.3 48.7 40 -3.7 25.3
03:10 1018 30.06 847 25.01 8.5 47.2 42 -3.8 25.1
03:15 1018 30.06 847 25.01 7.9 46.2 36 -6.2 20.9
03:20 1017 30.03 847 25.01 8.8 47.8 40 -4 24.8
03:25 1017 30.03 847 25.01 8.6 47.5 41 -4 24.8
03:30 1017 30.03 847 25.01 7.8 46.1 39 -5.4 22.2
03:35 1017 30.03 847 25.01 8.6 47.6 38 -4.8 23.4
03:40 1017 30.03 847 25.01 8.6 47.4 37 -5.3 22.4
03:45 1017 30.03 846 24.98 8.5 47.3 39 -4.8 23.4
03:50 1017 30.03 846 24.98 8.1 46.6 40 -4.8 23.4
03:55 1017 30.03 846 24.98 8 46.4 41 -4.6 23.8
04:00 1017 30.03 846 24.98 7.7 45.8 40 -4.9 23.2
04:05 1017 30.03 846 24.98 7.4 45.3 43 -4.3 24.3
04:10 1017 30.03 846 24.98 6.9 44.5 45 -4.1 24.6
04:15 1017 30.03 846 24.98 7.2 44.9 44 -4.4 24.2
04:20 1017 30.03 846 24.98 7.2 44.9 39 -5.7 21.7
04:25 1017 30.03 846 24.98 8.9 48.1 37 -4.9 23.2
04:30 1017 30.03 846 24.98 8 46.4 40 -4.7 23.5
04:35 1017 30.03 846 24.98 7 44.6 43 -4.6 23.7
04:40 1017 30.03 846 24.98 6.9 44.4 40 -5.7 21.8
04:45 1016 30 846 24.98 7.6 45.7 40 -5.2 22.6
04:50 1016 30 846 24.98 7.7 45.8 42 -4.5 24
04:55 1016 30 845 24.95 7.2 44.9 41 -5.1 22.8
05:00 1016 30 845 24.95 7.5 45.4 42 -4.6 23.8
05:05 1016 30 845 24.95 7.3 45.2 43 -4.6 23.8
05:10 1016 30 845 24.95 7.4 45.2 42 -4.7 23.5
05:15 1016 30 845 24.95 7.3 45.2 42 -4.6 23.8
05:20 1016 30 845 24.95 7.5 45.6 42 -4.6 23.8
05:25 1016 30 845 24.95 7.5 45.4 42 -4.5 23.8
05:30 1016 30 845 24.95 7.4 45.3 42 -4.5 23.9
05:35 1016 30 845 24.95 7.7 45.8 41 -4.7 23.6
05:40 1016 30 845 24.95 7.7 45.9 43 -4.2 24.5
05:45 1016 30 845 24.95 7.6 45.7 43 -4.3 24.2
05:50 1015 29.97 845 24.95 7.7 45.8 42 -4.5 24
05:55 1015 29.97 845 24.95 7.5 45.5 43 -4.3 24.2
06:00 1015 29.97 845 24.95 7.7 45.8 39 -5.3 22.5
06:05 1015 29.97 844 24.92 8.5 47.4 39 -4.7 23.5
06:10 1015 29.97 844 24.92 8.2 46.8 39 -4.8 23.3
06:15 1015 29.97 844 24.92 8.2 46.8 38 -5.4 22.3
06:20 1015 29.97 844 24.92 8.6 47.4 38 -5 23
06:25 1015 29.97 844 24.92 8.5 47.3 37 -5.4 22.3
06:30 1015 29.97 844 24.92 8.5 47.4 37 -5.4 22.3
06:35 1015 29.97 844 24.92 9.1 48.3 33 -6.4 20.4
06:40 1015 29.97 844 24.92 9.4 48.9 34 -5.6 21.9
06:45 1015 29.97 844 24.92 9.3 48.8 34 -5.6 21.9
06:50 1015 29.97 844 24.92 9.1 48.4 35 -5.5 22.1
06:55 1015 29.97 844 24.92 9.3 48.7 32 -6.5 20.2
07:00 1015 29.97 844 24.92 9.8 49.6 33 -5.6 22
07:05 1015 29.97 844 24.92 8.8 47.8 38 -4.7 23.5
07:10 1015 29.97 844 24.92 8.1 46.6 35 -6.3 20.7
07:15 1015 29.97 844 24.92 9.1 48.4 34 -5.8 21.6
07:20 1015 29.97 844 24.92 8.8 47.8 36 -5.3 22.5
07:25 1015 29.97 844 24.92 8.8 47.8 36 -5.6 21.9
07:30 1015 29.97 844 24.92 8.6 47.4 37 -5.1 22.7
07:35 1015 29.97 844 24.92 9.2 48.5 33 -6.3 20.7
07:40 1015 29.97 844 24.92 9.3 48.8 36 -4.8 23.3
07:45 1015 29.97 844 24.92 8.7 47.6 36 -5.6 21.9
07:50 1015 29.97 844 24.92 9.1 48.3 40 -3.7 25.4
07:55 1015 29.97 844 24.92 8.8 47.8 35 -6 21.3
08:00 1015 29.97 844 24.92 9.2 48.6 37 -4.8 23.3
08:05 1015 29.97 844 24.92 9.1 48.3 35 -5.4 22.3
08:10 1015 29.97 844 24.92 9.5 49 35 -5.3 22.5
08:15 1015 29.97 844 24.92 9.3 48.7 37 -4.8 23.4
08:20 1015 29.97 844 24.92 9.3 48.7 36 -5.1 22.9
08:25 1015 29.97 844 24.92 9.4 49 36 -4.9 23.2
08:30 1014 29.94 844 24.92 9.5 49.1 36 -4.8 23.3
08:35 1014 29.94 844 24.92 10.2 50.3 33 -5.3 22.4
08:40 1014 29.94 844 24.92 10.7 51.3 32 -5.4 22.3
08:45 1014 29.94 844 24.92 11 51.8 34 -4.1 24.6
08:50 1014 29.94 844 24.92 11 51.8 29 -6.2 20.9
08:55 1014 29.94 844 24.92 11 51.8 38 -2.9 26.8
09:00 1014 29.94 843 24.89 10.9 51.6 30 -6 21.2
09:05 1014 29.94 843 24.89 11.5 52.7 36 -2.9 26.8
09:10 1014 29.94 843 24.89 10.4 50.6 41 -2.4 27.6
09:15 1014 29.94 843 24.89 9.9 49.7 39 -3.5 25.8
09:20 1014 29.94 843 24.89 10.2 50.4 39 -3.2 26.3
09:25 1014 29.94 843 24.89 10.7 51.2 39 -2.7 27.1
09:30 1014 29.94 843 24.89 11 51.7 35 -3.9 25
09:35 1013 29.91 843 24.89 11.4 52.6 32 -4.8 23.4
09:40 1013 29.91 843 24.89 12.1 53.7 30 -5 23
09:45 1013 29.91 842 24.86 12.6 54.6 27 -5.9 21.3
09:50 1013 29.91 842 24.86 13 55.3 29 -4.8 23.3
09:55 1013 29.91 842 24.86 13.4 56 27 -5.1 22.8
10:00 1013 29.91 842 24.86 13.7 56.7 27 -5 23
10:05 1013 29.91 842 24.86 14 57.3 26 -5.3 22.5
10:10 1013 29.91 842 24.86 14.4 57.8 26 -4.9 23.2
10:15 1013 29.91 842 24.86 14.7 58.4 24 -5.4 22.2
10:20 1013 29.91 842 24.86 15 58.9 23 -5.9 21.4
10:25 1013 29.91 842 24.86 15.2 59.4 23 -5.7 21.7
10:30 1013 29.91 842 24.86 15.3 59.6 24 -5.3 22.5
10:35 1013 29.91 842 24.86 15.5 59.8 23 -5.4 22.2
10:40 1013 29.91 842 24.86 15.6 60.1 23 -5.4 22.2
10:45 1013 29.91 842 24.86 15.7 60.2 23 -5.4 22.3
10:50 1013 29.91 842 24.86 15.7 60.2 22 -5.7 21.7
10:55 1013 29.91 842 24.86 15.8 60.4 23 -5.3 22.4
11:00 1013 29.91 842 24.86 16 60.9 23 -5 22.9
11:05 1013 29.91 842 24.86 16.5 61.6 21 -6 21.2
11:10 1012 29.88 842 24.86 17 62.6 21 -5.4 22.3
11:15 1012 29.88 842 24.86 17.3 63.1 27 -1.7 29
11:20 1012 29.88 841 24.83 16.4 61.5 31 -0.5 31.1
11:25 1012 29.88 841 24.83 15.2 59.3 41 2.2 36
11:30 1012 29.88 841 24.83 14.5 58.2 41 1.6 35
11:35 1012 29.88 841 24.83 13.8 56.9 42 1.2 34.1
11:40 1012 29.88 841 24.83 13.7 56.6 44 1.7 35.1
11:45 1012 29.88 841 24.83 13.5 56.4 43 1.4 34.5
11:50 1012 29.88 841 24.83 14.3 57.8 41 1.5 34.7
11:55 1012 29.88 841 24.83 14.2 57.6 42 1.5 34.7
12:00 1012 29.88 841 24.83 14.4 57.9 41 1.5 34.7
12:05 1012 29.88 841 24.83 14.4 57.9 39 0.8 33.5
12:10 1012 29.88 841 24.83 15.5 59.9 35 0.1 32.2
12:15 1011 29.85 841 24.83 16.5 61.6 33 0.1 32.2
12:20 1011 29.85 840 24.81 16.2 61.1 33 -0.1 31.8
12:25 1011 29.85 840 24.81 16.7 62 33 0.4 32.7
12:30 1011 29.85 840 24.81 16.7 62 31 -0.3 31.5
12:35 1011 29.85 840 24.81 16.6 61.9 31 -0.5 31.2
12:40 1011 29.85 840 24.81 16.7 62.1 29 -1.3 29.6
12:45 1011 29.85 840 24.81 16.8 62.2 28 -1.5 29.4
12:50 1011 29.85 840 24.81 17.2 63 28 -1.3 29.6
12:55 1011 29.85 840 24.81 17.5 63.5 26 -2 28.5
13:00 1011 29.85 840 24.81 17.8 64 24 -2.9 26.9
13:05 1010 29.83 840 24.81 18.3 65 23 -3.2 26.3
13:10 1010 29.83 840 24.81 19.1 66.4 23 -2.7 27.2
13:15 1010 29.83 839 24.78 19.3 66.8 22 -3 26.7
13:20 1010 29.83 839 24.78 19.5 67.1 22 -2.7 27.2
13:25 1010 29.83 839 24.78 19.7 67.5 19 -4.4 24.2
13:30 1010 29.83 839 24.78 20.3 68.5 16 -6.2 20.9
13:35 1010 29.83 839 24.78 20.7 69.2 16 -6.2 20.8
13:40 1010 29.83 839 24.78 20.3 68.6 18 -5 23
13:45 1009 29.8 839 24.78 20.5 68.9 15 -6.6 20
13:50 1009 29.8 839 24.78 21.3 70.4 15 -6 21.2
13:55 1009 29.8 839 24.78 21.8 71.3 15 -5.5 22
14:00 1009 29.8 839 24.78 21.1 69.9 14 -7.2 19
14:05 1009 29.8 838 24.75 20.6 69.1 14 -7.6 18.3
14:10 1009 29.8 838 24.75 20.5 68.9 15 -7.3 18.9
14:15 1009 29.8 838 24.75 20.5 68.9 14 -7.4 18.7
14:20 1009 29.8 838 24.75 20.3 68.5 16 -6.5 20.3
14:25 1009 29.8 838 24.75 20.3 68.5 15 -7.5 18.6
14:30 1009 29.8 838 24.75 20 68 15 -7.5 18.5
14:35 1009 29.8 838 24.75 19.9 67.8 15 -7 19.5
14:40 1009 29.8 838 24.75 20 68.1 19 -4.4 24.1
14:45 1009 29.8 838 24.75 20.1 68.2 21 -2.6 27.3
14:50 1009 29.8 838 24.75 19.9 67.8 16 -6.9 19.6
14:55 1009 29.8 838 24.75 20 68 15 -7 19.4
15:00 1009 29.8 838 24.75 19.9 67.8 14 -8.3 17.1
15:05 1008 29.77 838 24.75 20.1 68.2 14 -7.8 17.9
15:10 1008 29.77 838 24.75 20.3 68.6 15 -6.8 19.8
15:15 1008 29.77 837 24.72 20.5 68.9 14 -7.5 18.5
15:20 1008 29.77 837 24.72 20.5 68.8 14 -7.9 17.8
15:25 1008 29.77 837 24.72 20.9 69.5 14 -7.5 18.4
15:30 1008 29.77 837 24.72 21.2 70.1 14 -7.5 18.4
15:35 1008 29.77 837 24.72 20.9 69.5 13 -8.2 17.2
15:40 1008 29.77 837 24.72 20.6 69.1 13 -8.2 17.3
15:45 1008 29.77 837 24.72 20.8 69.5 14 -7.7 18.1
15:50 1008 29.77 837 24.72 21 69.9 14 -7.6 18.4
15:55 1008 29.77 837 24.72 21 69.9 13 -8 17.6
16:00 1008 29.77 837 24.72 21.1 69.9 14 -7 19.4
16:05 1007 29.74 836 24.69 21.1 70 14 -7.7 18.2
16:10 1007 29.74 836 24.69 20.4 68.8 14 -7.6 18.3
16:15 1007 29.74 836 24.69 20 68 14 -8.1 17.3
16:20 1007 29.74 836 24.69 20 68.1 14 -8.2 17.2
16:25 1007 29.74 836 24.69 20.1 68.1 14 -7.8 18
16:30 1007 29.74 836 24.69 20.1 68.2 15 -7.2 19.1
16:35 1007 29.74 836 24.69 20 67.9 16 -6.8 19.8
16:40 1007 29.74 836 24.69 19.8 67.7 16 -6.2 20.8
16:45 1007 29.74 836 24.69 19.8 67.7 15 -7.6 18.4
16:50 1007 29.74 836 24.69 20 67.9 15 -7.7 18.1
16:55 1007 29.74 836 24.69 20.1 68.2 14 -7.7 18.1
17:00 1007 29.74 836 24.69 20.2 68.4 15 -7.3 18.9
17:05 1007 29.74 836 24.69 20.1 68.1 15 -7.6 18.4
17:10 1007 29.74 836 24.69 19.9 67.9 15 -7.6 18.4
17:15 1007 29.74 836 24.69 20 68 14 -8 17.6
17:20 1007 29.74 836 24.69 20.1 68.1 15 -7.7 18.2
17:25 1007 29.74 836 24.69 20.6 69 14 -7.4 18.6
17:30 1007 29.74 836 24.69 20.5 68.9 15 -6.6 20.1
17:35 1007 29.74 836 24.69 20.5 68.9 15 -7.1 19.3
17:40 1007 29.74 836 24.69 20.5 68.9 15 -7.2 19
17:45 1007 29.74 836 24.69 20.1 68.1 16 -6.7 19.9
17:50 1007 29.74 836 24.69 19.8 67.6 15 -7.3 18.9
17:55 1007 29.74 836 24.69 19.6 67.2 17 -6.1 21
18:00 1007 29.74 836 24.69 19.4 66.9 16 -6.7 20
18:05 1007 29.74 836 24.69 19.3 66.7 18 -5.6 21.9
18:10 1007 29.74 836 24.69 19.2 66.6 15 -8 17.7
18:15 1007 29.74 836 24.69 19.7 67.4 15 -7.2 19.1
18:20 1006 29.71 836 24.69 19.9 67.7 15 -7 19.4
18:25 1006 29.71 836 24.69 19.7 67.5 16 -7 19.3
18:30 1007 29.74 836 24.69 19.5 67.2 16 -7.2 19.1
18:35 1007 29.74 836 24.69 19.5 67.1 15 -7.9 17.8
18:40 1007 29.74 836 24.69 19.3 66.8 15 -7.6 18.4
18:45 1007 29.74 836 24.69 19.1 66.4 16 -7.5 18.6
18:50 1006 29.71 836 24.69 18.6 65.4 16 -7.5 18.4
18:55 1006 29.71 836 24.69 18.5 65.3 16 -7.9 17.8
19:00 1006 29.71 836 24.69 18.4 65.1 16 -7.6 18.3
19:05 1006 29.71 836 24.69 18.4 65.1 17 -7.2 19
19:10 1006 29.71 836 24.69 18.3 65 16 -7.8 18
19:15 1006 29.71 835 24.66 18.2 64.8 18 -6.7 20
19:20 1006 29.71 835 24.66 17.9 64.2 17 -7.2 19.1
19:25 1006 29.71 835 24.66 17.9 64.1 18 -6.8 19.8
19:30 1006 29.71 835 24.66 17.7 63.8 20 -5.7 21.7
19:35 1006 29.71 835 24.66 17.4 63.4 18 -6.8 19.8
19:40 1006 29.71 835 24.66 17.2 62.9 21 -5.5 22.1
19:45 1006 29.71 835 24.66 16.7 62.1 20 -6.2 20.9
19:50 1006 29.71 835 24.66 16.9 62.4 20 -6.4 20.5
19:55 1006 29.71 835 24.66 16.9 62.5 20 -6.2 20.9
20:00 1006 29.71 835 24.66 16.6 61.8 21 -5.5 22.1
20:05 1006 29.71 835 24.66 16.6 61.8 20 -6.4 20.5
20:10 1006 29.71 835 24.66 16.5 61.7 23 -4.7 23.6
20:15 1006 29.71 835 24.66 15.4 59.6 25 -4.5 23.8
20:20 1006 29.71 835 24.66 15 59 25 -4.8 23.3
20:25 1006 29.71 835 24.66 14.8 58.6 25 -4.7 23.5
20:30 1006 29.71 835 24.66 15.4 59.7 24 -5 23
20:35 1006 29.71 835 24.66 15.3 59.6 24 -5.1 22.8
20:40 1006 29.71 835 24.66 15.3 59.5 22 -6 21.2
20:45 1006 29.71 835 24.66 15.4 59.7 28 -2.9 26.7
20:50 1006 29.71 835 24.66 15.2 59.3 22 -6.2 20.8
20:55 1006 29.71 835 24.66 15.5 60 24 -4.7 23.5
21:00 1006 29.71 835 24.66 15.4 59.8 21 -6.7 19.9
21:05 1006 29.71 835 24.66 16 60.7 25 -3.8 25.1
21:10 1006 29.71 835 24.66 14.1 57.3 27 -4.6 23.7
21:15 1005 29.68 835 24.66 14.5 58.1 23 -6 21.1
21:20 1006 29.71 835 24.66 14.5 58 26 -4.8 23.3
21:25 1005 29.68 834 24.63 15.1 59.1 21 -6.9 19.5
21:30 1005 29.68 835 24.66 15.8 60.4 23 -5 23
21:35 1005 29.68 835 24.66 14.7 58.5 26 -4.3 24.3
21:40 1005 29.68 835 24.66 13.7 56.7 27 -4.7 23.5
21:45 1005 29.68 835 24.66 13.3 55.9 28 -4.9 23.1
21:50 1005 29.68 834 24.63 13.1 55.6 27 -5.3 22.4
21:55 1005 29.68 834 24.63 13.5 56.2 26 -5.4 22.3
22:00 1005 29.68 834 24.63 13.3 56 27 -5.1 22.9
22:05 1005 29.68 834 24.63 13.4 56.2 27 -5.2 22.7
22:10 1005 29.68 834 24.63 13.5 56.3 26 -5.3 22.4
22:15 1005 29.68 834 24.63 13.6 56.5 27 -5.1 22.9
22:20 1005 29.68 834 24.63 13.6 56.5 26 -5.5 22
22:25 1005 29.68 834 24.63 13.8 56.8 25 -5.8 21.5
22:30 1005 29.68 834 24.63 13.7 56.6 26 -5.3 22.5
22:35 1005 29.68 834 24.63 13.9 57 25 -5.8 21.5
22:40 1005 29.68 834 24.63 14.1 57.3 32 -2.2 28
22:45 1005 29.68 834 24.63 13.3 55.9 28 -4.9 23.3
22:50 1004 29.65 834 24.63 13 55.3 28 -5.1 22.8
22:55 1004 29.65 834 24.63 12.9 55.3 29 -4.5 24
23:00 1004 29.65 834 24.63 12.9 55.3 30 -4 24.9
23:05 1004 29.65 833 24.6 12.8 55 29 -5 23.1
23:10 1004 29.65 834 24.63 12.2 54 30 -4.7 23.6
23:15 1004 29.65 833 24.6 12.5 54.5 26 -6.2 20.8
23:20 1004 29.65 833 24.6 12.3 54.1 32 -3.9 24.9
23:25 1004 29.65 833 24.6 11.3 52.3 33 -4.4 24.1
23:30 1004 29.65 833 24.6 11.6 52.8 34 -3.9 25
23:35 1004 29.65 833 24.6 11.5 52.7 35 -3.5 25.7
23:40 1004 29.65 833 24.6 10.6 51 37 -3.6 25.4
23:45 1004 29.65 833 24.6 10.4 50.7 35 -4.4 24
23:50 1004 29.65 833 24.6 10.4 50.6 38 -3.5 25.8
23:55 1004 29.65 833 24.6 9.9 49.9 41 -2.5 27.5
24:00 1004 29.65 833 24.6 9.3 48.7 41 -3.1 26.3